createdAt,value
2018-04-22T00:00:16.496Z,17.57
2018-04-22T00:01:16.472Z,17.63
2018-04-22T00:02:16.449Z,17.49
2018-04-22T00:03:16.427Z,17.56
2018-04-22T00:04:16.396Z,17.54
2018-04-22T00:05:16.382Z,17.54
2018-04-22T00:06:16.351Z,17.54
2018-04-22T00:07:16.325Z,17.56
2018-04-22T00:08:16.308Z,17.48
2018-04-22T00:09:16.278Z,17.56
2018-04-22T00:10:16.262Z,17.63
2018-04-22T00:11:16.239Z,17.60
2018-04-22T00:12:16.208Z,17.60
2018-04-22T00:13:16.183Z,17.54
2018-04-22T00:14:16.167Z,17.54
2018-04-22T00:15:16.139Z,17.41
2018-04-22T00:16:16.116Z,17.39
2018-04-22T00:17:16.097Z,17.42
2018-04-22T00:18:16.064Z,17.39
2018-04-22T00:19:16.041Z,17.54
2018-04-22T00:20:16.028Z,17.44
2018-04-22T00:21:15.996Z,17.44
2018-04-22T00:22:15.980Z,17.44
2018-04-22T00:23:15.959Z,17.41
2018-04-22T00:24:15.940Z,17.45
2018-04-22T00:25:15.911Z,17.39
2018-04-22T00:26:15.879Z,17.48
2018-04-22T00:27:15.861Z,17.42
2018-04-22T00:28:15.829Z,17.42
2018-04-22T00:29:15.809Z,17.44
2018-04-22T00:30:15.789Z,17.34
2018-04-22T00:31:15.760Z,17.38
2018-04-22T00:32:15.738Z,17.39
2018-04-22T00:33:15.710Z,17.36
2018-04-22T00:34:15.689Z,17.30
2018-04-22T00:35:15.672Z,17.29
2018-04-22T00:36:15.641Z,17.33
2018-04-22T00:37:15.625Z,17.30
2018-04-22T00:38:15.598Z,17.33
2018-04-22T00:39:15.569Z,17.31
2018-04-22T00:40:15.560Z,17.26
2018-04-22T00:41:15.527Z,17.29
2018-04-22T00:42:15.501Z,17.22
2018-04-22T00:43:15.473Z,17.24
2018-04-22T00:44:15.460Z,17.23
2018-04-22T00:45:15.433Z,17.30
2018-04-22T00:46:15.413Z,17.26
2018-04-22T00:47:15.386Z,17.26
2018-04-22T00:48:15.362Z,17.19
2018-04-22T00:49:15.334Z,17.27
2018-04-22T00:50:15.317Z,17.24
2018-04-22T00:51:15.290Z,17.24
2018-04-22T00:52:15.267Z,17.23
2018-04-22T00:53:15.243Z,17.29
2018-04-22T00:54:15.219Z,17.22
2018-04-22T00:55:15.192Z,17.23
2018-04-22T00:56:15.174Z,17.27
2018-04-22T00:57:15.149Z,17.26
2018-04-22T00:58:15.153Z,17.22
2018-04-22T00:59:15.103Z,17.30
2018-04-22T01:00:15.091Z,17.23
2018-04-22T01:01:15.059Z,17.33
2018-04-22T01:02:15.025Z,17.16
2018-04-22T01:03:15.000Z,17.15
2018-04-22T01:04:14.983Z,17.19
2018-04-22T01:05:14.952Z,17.16
2018-04-22T01:06:14.943Z,17.11
2018-04-22T01:07:14.914Z,17.12
2018-04-22T01:08:14.882Z,17.09
2018-04-22T01:09:14.869Z,17.09
2018-04-22T01:10:14.834Z,17.12
2018-04-22T01:11:14.814Z,17.14
2018-04-22T01:12:14.792Z,16.99
2018-04-22T01:13:14.767Z,17.14
2018-04-22T01:14:14.744Z,17.05
2018-04-22T01:15:14.742Z,16.94
2018-04-22T01:16:14.694Z,17.04
2018-04-22T01:17:14.674Z,16.97
2018-04-22T01:18:14.648Z,17.01
2018-04-22T01:19:14.623Z,17.01
2018-04-22T01:20:14.601Z,17.04
2018-04-22T01:21:14.574Z,17.02
2018-04-22T01:22:14.556Z,16.96
2018-04-22T01:23:14.529Z,16.94
2018-04-22T01:24:14.510Z,16.89
2018-04-22T01:25:14.484Z,16.90
2018-04-22T01:26:14.459Z,16.97
2018-04-22T01:27:14.438Z,16.96
2018-04-22T01:28:14.406Z,16.97
2018-04-22T01:29:14.387Z,16.93
2018-04-22T01:30:14.365Z,17.04
2018-04-22T01:31:14.338Z,17.08
2018-04-22T01:32:14.311Z,17.01
2018-04-22T01:33:14.290Z,17.06
2018-04-22T01:34:14.274Z,17.12
2018-04-22T01:35:14.241Z,17.12
2018-04-22T01:36:14.226Z,17.20
2018-04-22T01:37:14.196Z,17.16
2018-04-22T01:38:14.173Z,17.19
2018-04-22T01:39:14.149Z,17.26
2018-04-22T01:40:14.129Z,17.23
2018-04-22T01:41:14.107Z,17.24
2018-04-22T01:42:14.075Z,17.29
2018-04-22T01:43:14.057Z,17.31
2018-04-22T01:44:14.033Z,17.33
2018-04-22T01:45:14.004Z,17.24
2018-04-22T01:46:13.993Z,17.23
2018-04-22T01:47:13.960Z,17.33
2018-04-22T01:48:13.937Z,17.23
2018-04-22T01:49:13.909Z,17.33
2018-04-22T01:50:13.893Z,17.27
2018-04-22T01:51:13.869Z,17.29
2018-04-22T01:52:13.836Z,17.30
2018-04-22T01:53:13.821Z,17.26
2018-04-22T01:54:13.790Z,17.30
2018-04-22T01:55:13.772Z,17.26
2018-04-22T01:56:13.744Z,17.31
2018-04-22T01:57:13.728Z,17.29
2018-04-22T01:58:13.695Z,17.24
2018-04-22T01:59:13.669Z,17.33
2018-04-22T02:00:13.655Z,17.34
2018-04-22T02:01:13.622Z,17.22
2018-04-22T02:02:13.601Z,17.22
2018-04-22T02:03:13.581Z,17.30
2018-04-22T02:04:13.553Z,17.27
2018-04-22T02:05:13.532Z,17.30
2018-04-22T02:06:13.519Z,17.31
2018-04-22T02:07:13.488Z,17.33
2018-04-22T02:08:13.452Z,17.34
2018-04-22T02:09:13.436Z,17.34
2018-04-22T02:10:13.408Z,17.34
2018-04-22T02:11:13.382Z,17.39
2018-04-22T02:12:13.362Z,17.29
2018-04-22T02:13:13.339Z,17.36
2018-04-22T02:14:13.315Z,17.36
2018-04-22T02:15:13.291Z,17.39
2018-04-22T02:16:13.268Z,17.42
2018-04-22T02:17:13.242Z,17.36
2018-04-22T02:18:13.220Z,17.39
2018-04-22T02:19:13.191Z,17.42
2018-04-22T02:20:13.168Z,17.44
2018-04-22T02:21:13.141Z,17.54
2018-04-22T02:22:13.128Z,17.46
2018-04-22T02:23:13.097Z,17.45
2018-04-22T02:24:13.076Z,17.51
2018-04-22T02:25:13.048Z,17.48
2018-04-22T02:26:13.023Z,17.42
2018-04-22T02:27:13.041Z,17.42
2018-04-22T02:28:12.984Z,17.36
2018-04-22T02:29:12.955Z,17.41
2018-04-22T02:30:12.929Z,17.48
2018-04-22T02:31:12.912Z,17.42
2018-04-22T02:32:12.879Z,17.42
2018-04-22T02:33:12.863Z,17.51
2018-04-22T02:34:12.834Z,17.49
2018-04-22T02:35:12.815Z,17.45
2018-04-22T02:36:12.782Z,17.44
2018-04-22T02:37:12.763Z,17.42
2018-04-22T02:38:12.738Z,17.38
2018-04-22T02:39:12.709Z,17.44
2018-04-22T02:40:12.688Z,17.41
2018-04-22T02:41:12.668Z,17.42
2018-04-22T02:42:12.643Z,17.38
2018-04-22T02:43:12.618Z,17.45
2018-04-22T02:44:12.596Z,17.45
2018-04-22T02:45:12.575Z,17.44
2018-04-22T02:46:12.542Z,17.44
2018-04-22T02:47:12.527Z,17.36
2018-04-22T02:48:12.497Z,17.38
2018-04-22T02:49:12.476Z,17.30
2018-04-22T02:50:12.453Z,17.30
2018-04-22T02:51:12.428Z,17.30
2018-04-22T02:52:12.403Z,17.29
2018-04-22T02:53:12.374Z,17.23
2018-04-22T02:54:12.354Z,17.23
2018-04-22T02:55:12.328Z,17.15
2018-04-22T02:56:12.321Z,17.09
2018-04-22T02:57:12.297Z,17.11
2018-04-22T02:58:12.339Z,17.14
2018-04-22T02:59:12.240Z,17.06
2018-04-22T03:00:12.211Z,16.96
2018-04-22T03:01:12.188Z,17.02
2018-04-22T03:02:12.162Z,17.02
2018-04-22T03:03:12.139Z,17.02
2018-04-22T03:04:12.116Z,16.96
2018-04-22T03:05:12.098Z,16.91
2018-04-22T03:06:12.066Z,16.90
2018-04-22T03:07:12.043Z,17.02
2018-04-22T03:08:12.018Z,17.04
2018-04-22T03:09:12.001Z,16.97
2018-04-22T03:10:11.974Z,16.99
2018-04-22T03:11:11.943Z,16.97
2018-04-22T03:12:11.931Z,17.01
2018-04-22T03:13:11.906Z,16.99
2018-04-22T03:14:11.880Z,16.91
2018-04-22T03:15:11.849Z,17.06
2018-04-22T03:16:11.827Z,16.94
2018-04-22T03:17:11.887Z,17.08
2018-04-22T03:18:11.786Z,16.97
2018-04-22T03:19:11.758Z,16.89
2018-04-22T03:20:11.730Z,16.90
2018-04-22T03:21:11.703Z,16.99
2018-04-22T03:22:11.701Z,16.94
2018-04-22T03:23:11.660Z,16.90
2018-04-22T03:24:11.638Z,16.91
2018-04-22T03:25:11.609Z,16.86
2018-04-22T03:26:11.591Z,16.87
2018-04-22T03:27:11.566Z,16.84
2018-04-22T03:28:11.536Z,16.86
2018-04-22T03:29:11.512Z,16.86
2018-04-22T03:30:11.489Z,16.89
2018-04-22T03:31:11.470Z,16.87
2018-04-22T03:32:11.438Z,16.91
2018-04-22T03:33:11.425Z,16.89
2018-04-22T03:34:11.390Z,16.86
2018-04-22T03:35:11.368Z,16.72
2018-04-22T03:36:11.352Z,16.75
2018-04-22T03:37:11.326Z,16.72
2018-04-22T03:38:11.299Z,16.71
2018-04-22T03:39:11.277Z,16.65
2018-04-22T03:40:11.252Z,16.78
2018-04-22T03:41:11.230Z,16.72
2018-04-22T03:42:11.202Z,16.69
2018-04-22T03:43:11.177Z,16.71
2018-04-22T03:44:11.157Z,16.69
2018-04-22T03:45:11.130Z,16.69
2018-04-22T03:46:11.110Z,16.71
2018-04-22T03:47:11.088Z,16.64
2018-04-22T03:48:11.058Z,16.64
2018-04-22T03:49:11.037Z,16.65
2018-04-22T03:50:11.011Z,16.58
2018-04-22T03:51:10.985Z,16.53
2018-04-22T03:52:10.970Z,16.49
2018-04-22T03:53:10.945Z,16.51
2018-04-22T03:54:10.912Z,16.43
2018-04-22T03:55:10.903Z,16.47
2018-04-22T03:56:10.865Z,16.36
2018-04-22T03:57:10.858Z,16.49
2018-04-22T03:58:10.823Z,16.38
2018-04-22T03:59:10.794Z,16.42
2018-04-22T04:00:10.779Z,16.42
2018-04-22T04:01:10.745Z,16.39
2018-04-22T04:02:10.728Z,16.31
2018-04-22T04:03:10.697Z,16.31
2018-04-22T04:04:10.713Z,16.31
2018-04-22T04:05:10.651Z,16.31
2018-04-22T04:06:10.635Z,16.28
2018-04-22T04:07:10.609Z,16.23
2018-04-22T04:08:10.625Z,16.21
2018-04-22T04:09:10.559Z,16.21
2018-04-22T04:10:10.530Z,16.12
2018-04-22T04:11:10.509Z,16.17
2018-04-22T04:12:10.493Z,16.12
2018-04-22T04:13:10.456Z,16.17
2018-04-22T04:14:10.443Z,16.13
2018-04-22T04:15:10.414Z,16.05
2018-04-22T04:16:10.384Z,16.00
2018-04-22T04:17:10.370Z,16.05
2018-04-22T04:18:10.336Z,16.08
2018-04-22T04:19:10.315Z,16.13
2018-04-22T04:20:10.289Z,16.12
2018-04-22T04:21:10.261Z,16.09
2018-04-22T04:22:10.245Z,16.09
2018-04-22T04:23:10.216Z,16.02
2018-04-22T04:24:10.195Z,16.15
2018-04-22T04:25:10.175Z,16.12
2018-04-22T04:26:10.142Z,16.12
2018-04-22T04:27:10.118Z,16.02
2018-04-22T04:28:10.093Z,16.08
2018-04-22T04:29:10.073Z,16.12
2018-04-22T04:30:10.051Z,16.10
2018-04-22T04:31:10.024Z,16.12
2018-04-22T04:32:10.005Z,16.13
2018-04-22T04:33:09.974Z,16.13
2018-04-22T04:34:09.951Z,16.21
2018-04-22T04:35:09.933Z,16.20
2018-04-22T04:36:09.900Z,16.28
2018-04-22T04:37:09.884Z,16.15
2018-04-22T04:38:09.850Z,16.17
2018-04-22T04:39:09.827Z,16.17
2018-04-22T04:40:09.861Z,16.29
2018-04-22T04:41:09.781Z,16.28
2018-04-22T04:42:09.764Z,16.26
2018-04-22T04:43:09.732Z,16.29
2018-04-22T04:44:09.714Z,16.20
2018-04-22T04:45:09.683Z,16.29
2018-04-22T04:46:09.667Z,16.26
2018-04-22T04:47:11.325Z,16.26
2018-04-22T04:48:09.607Z,16.16
2018-04-22T04:49:09.597Z,16.28
2018-04-22T04:50:09.564Z,16.29
2018-04-22T04:51:09.545Z,16.28
2018-04-22T04:52:09.513Z,16.28
2018-04-22T04:53:09.495Z,16.26
2018-04-22T04:54:09.467Z,16.29
2018-04-22T04:55:09.440Z,16.20
2018-04-22T04:56:09.421Z,16.28
2018-04-22T04:57:09.393Z,16.16
2018-04-22T04:58:09.372Z,16.17
2018-04-22T04:59:09.350Z,16.17
2018-04-22T05:00:09.319Z,16.08
2018-04-22T05:01:09.297Z,16.16
2018-04-22T05:02:09.278Z,16.21
2018-04-22T05:03:09.245Z,16.12
2018-04-22T05:04:09.231Z,16.15
2018-04-22T05:05:09.244Z,16.20
2018-04-22T05:06:09.177Z,16.20
2018-04-22T05:07:09.151Z,16.31
2018-04-22T05:08:09.142Z,16.20
2018-04-22T05:09:09.104Z,16.26
2018-04-22T05:10:09.082Z,16.23
2018-04-22T05:11:09.057Z,16.28
2018-04-22T05:12:09.033Z,16.29
2018-04-22T05:13:09.013Z,16.32
2018-04-22T05:14:08.984Z,16.32
2018-04-22T05:15:08.953Z,16.33
2018-04-22T05:16:08.934Z,16.29
2018-04-22T05:17:08.910Z,16.31
2018-04-22T05:18:08.886Z,16.33
2018-04-22T05:19:08.863Z,16.35
2018-04-22T05:20:08.841Z,16.38
2018-04-22T05:21:08.818Z,16.26
2018-04-22T05:22:08.791Z,16.29
2018-04-22T05:23:08.767Z,16.35
2018-04-22T05:24:08.741Z,16.33
2018-04-22T05:25:08.713Z,16.41
2018-04-22T05:26:08.697Z,16.51
2018-04-22T05:27:08.671Z,16.46
2018-04-22T05:28:08.645Z,16.41
2018-04-22T05:29:08.625Z,16.41
2018-04-22T05:30:08.598Z,16.46
2018-04-22T05:31:08.612Z,16.50
2018-04-22T05:32:08.549Z,16.53
2018-04-22T05:33:08.523Z,16.58
2018-04-22T05:34:08.502Z,16.58
2018-04-22T05:35:08.477Z,16.53
2018-04-22T05:36:08.450Z,16.61
2018-04-22T05:37:08.424Z,16.54
2018-04-22T05:38:08.402Z,16.71
2018-04-22T05:39:08.383Z,16.68
2018-04-22T05:40:08.353Z,16.68
2018-04-22T05:41:08.334Z,16.69
2018-04-22T05:42:08.303Z,16.66
2018-04-22T05:43:08.280Z,16.61
2018-04-22T05:44:08.262Z,16.56
2018-04-22T05:45:08.236Z,16.72
2018-04-22T05:46:08.210Z,16.69
2018-04-22T05:47:08.180Z,16.69
2018-04-22T05:48:08.170Z,16.71
2018-04-22T05:49:08.135Z,16.78
2018-04-22T05:50:08.113Z,16.68
2018-04-22T05:51:08.093Z,16.71
2018-04-22T05:52:08.068Z,16.69
2018-04-22T05:53:08.045Z,16.74
2018-04-22T05:54:08.014Z,16.83
2018-04-22T05:55:08.035Z,16.79
2018-04-22T05:56:07.973Z,16.84
2018-04-22T05:57:07.987Z,16.87
2018-04-22T05:58:07.925Z,16.97
2018-04-22T05:59:07.901Z,16.91
2018-04-22T06:00:07.872Z,16.91
2018-04-22T06:01:07.847Z,17.06
2018-04-22T06:02:07.851Z,16.99
2018-04-22T06:03:07.803Z,17.14
2018-04-22T06:04:07.775Z,17.11
2018-04-22T06:05:07.764Z,17.08
2018-04-22T06:06:07.733Z,17.12
2018-04-22T06:07:07.699Z,17.16
2018-04-22T06:08:07.679Z,17.19
2018-04-22T06:09:07.693Z,17.24
2018-04-22T06:10:07.687Z,17.22
2018-04-22T06:11:07.643Z,17.27
2018-04-22T06:12:07.585Z,17.29
2018-04-22T06:13:07.589Z,17.31
2018-04-22T06:14:07.535Z,17.34
2018-04-22T06:15:07.515Z,17.41
2018-04-22T06:16:07.486Z,17.42
2018-04-22T06:17:07.464Z,17.44
2018-04-22T06:18:07.445Z,17.57
2018-04-22T06:19:07.419Z,17.49
2018-04-22T06:20:07.396Z,17.56
2018-04-22T06:21:07.369Z,17.59
2018-04-22T06:22:07.345Z,17.59
2018-04-22T06:23:07.325Z,17.59
2018-04-22T06:24:07.295Z,17.65
2018-04-22T06:25:07.278Z,17.79
2018-04-22T06:26:07.256Z,17.79
2018-04-22T06:27:07.220Z,17.83
2018-04-22T06:28:08.069Z,17.78
2018-04-22T06:29:07.180Z,17.86
2018-04-22T06:30:07.157Z,17.92
2018-04-22T06:31:07.137Z,18.03
2018-04-22T06:32:07.104Z,18.00
2018-04-22T06:33:07.089Z,18.05
2018-04-22T06:34:07.056Z,18.13
2018-04-22T06:35:07.038Z,18.19
2018-04-22T06:36:07.020Z,18.20
2018-04-22T06:37:06.994Z,18.23
2018-04-22T06:38:06.959Z,18.31
2018-04-22T06:39:06.943Z,18.43
2018-04-22T06:40:06.915Z,18.29
2018-04-22T06:41:06.930Z,18.41
2018-04-22T06:42:06.874Z,18.40
2018-04-22T06:43:06.849Z,18.49
2018-04-22T06:44:06.818Z,18.52
2018-04-22T06:45:06.802Z,18.53
2018-04-22T06:46:06.789Z,18.60
2018-04-22T06:47:06.750Z,18.59
2018-04-22T06:48:06.731Z,18.60
2018-04-22T06:49:06.701Z,18.66
2018-04-22T06:50:06.686Z,18.78
2018-04-22T06:51:06.661Z,18.74
2018-04-22T06:52:06.640Z,18.90
2018-04-22T06:53:06.608Z,18.92
2018-04-22T06:54:06.591Z,19.02
2018-04-22T06:55:06.566Z,19.00
2018-04-22T06:56:06.536Z,19.09
2018-04-22T06:57:06.518Z,19.15
2018-04-22T06:58:06.489Z,19.15
2018-04-22T06:59:06.464Z,19.27
2018-04-22T07:00:06.455Z,19.18
2018-04-22T07:01:06.421Z,19.29
2018-04-22T07:02:06.404Z,19.36
2018-04-22T07:03:06.402Z,19.47
2018-04-22T07:04:06.355Z,19.41
2018-04-22T07:05:06.334Z,19.40
2018-04-22T07:06:06.304Z,19.51
2018-04-22T07:07:06.283Z,19.52
2018-04-22T07:08:06.260Z,19.49
2018-04-22T07:09:06.234Z,19.64
2018-04-22T07:10:06.218Z,19.66
2018-04-22T07:11:06.192Z,19.67
2018-04-22T07:12:06.169Z,19.77
2018-04-22T07:13:06.225Z,19.76
2018-04-22T07:14:06.131Z,19.74
2018-04-22T07:15:06.094Z,19.86
2018-04-22T07:16:06.076Z,19.89
2018-04-22T07:17:06.060Z,19.95
2018-04-22T07:18:06.031Z,19.96
2018-04-22T07:19:06.007Z,20.06
2018-04-22T07:20:05.982Z,20.06
2018-04-22T07:21:05.955Z,20.10
2018-04-22T07:22:05.939Z,20.16
2018-04-22T07:23:05.934Z,20.19
2018-04-22T07:24:05.929Z,20.26
2018-04-22T07:25:05.862Z,20.25
2018-04-22T07:26:05.847Z,20.25
2018-04-22T07:27:05.817Z,20.41
2018-04-22T07:28:05.799Z,20.43
2018-04-22T07:29:05.773Z,20.48
2018-04-22T07:30:05.745Z,20.55
2018-04-22T07:31:05.728Z,20.59
2018-04-22T07:32:05.721Z,20.70
2018-04-22T07:33:05.685Z,20.66
2018-04-22T07:34:05.665Z,20.72
2018-04-22T07:35:05.639Z,20.85
2018-04-22T07:36:05.622Z,20.90
2018-04-22T07:37:05.596Z,21.05
2018-04-22T07:38:05.574Z,21.07
2018-04-22T07:39:05.548Z,21.14
2018-04-22T07:40:05.527Z,21.21
2018-04-22T07:41:05.499Z,21.25
2018-04-22T07:42:05.476Z,21.36
2018-04-22T07:43:05.455Z,21.40
2018-04-22T07:44:05.430Z,21.46
2018-04-22T07:45:05.403Z,21.45
2018-04-22T07:46:05.384Z,21.54
2018-04-22T07:47:05.366Z,21.60
2018-04-22T07:48:05.461Z,21.66
2018-04-22T07:49:05.320Z,21.64
2018-04-22T07:50:05.522Z,21.73
2018-04-22T07:51:05.266Z,21.73
2018-04-22T07:52:05.250Z,21.88
2018-04-22T07:53:05.250Z,21.95
2018-04-22T07:54:05.203Z,21.89
2018-04-22T07:55:05.184Z,21.89
2018-04-22T07:56:05.157Z,21.95
2018-04-22T07:57:05.134Z,21.99
2018-04-22T07:58:05.136Z,22.07
2018-04-22T07:59:05.093Z,22.18
2018-04-22T08:00:05.070Z,22.20
2018-04-22T08:01:05.052Z,22.26
2018-04-22T08:02:05.021Z,22.26
2018-04-22T08:03:05.001Z,22.33
2018-04-22T08:04:04.983Z,22.28
2018-04-22T08:05:04.955Z,22.35
2018-04-22T08:06:04.931Z,22.35
2018-04-22T08:07:04.923Z,22.39
2018-04-22T08:08:04.892Z,22.39
2018-04-22T08:09:04.871Z,22.41
2018-04-22T08:10:04.843Z,22.47
2018-04-22T08:11:04.820Z,22.54
2018-04-22T08:12:04.801Z,22.51
2018-04-22T08:13:04.781Z,22.53
2018-04-22T08:14:04.752Z,22.55
2018-04-22T08:15:04.737Z,22.69
2018-04-22T08:16:04.709Z,22.65
2018-04-22T08:17:04.686Z,22.65
2018-04-22T08:18:04.669Z,22.73
2018-04-22T08:19:04.641Z,22.65
2018-04-22T08:20:04.618Z,22.69
2018-04-22T08:21:04.601Z,22.63
2018-04-22T08:22:04.579Z,22.59
2018-04-22T08:23:04.552Z,22.60
2018-04-22T08:24:04.555Z,22.70
2018-04-22T08:25:04.509Z,22.76
2018-04-22T08:26:04.489Z,22.80
2018-04-22T08:27:04.469Z,22.83
2018-04-22T08:28:04.447Z,22.83
2018-04-22T08:29:04.425Z,22.72
2018-04-22T08:30:04.401Z,22.81
2018-04-22T08:31:04.430Z,22.83
2018-04-22T08:32:04.360Z,22.84
2018-04-22T08:33:04.332Z,22.83
2018-04-22T08:34:04.316Z,22.90
2018-04-22T08:35:04.291Z,22.93
2018-04-22T08:36:04.289Z,22.91
2018-04-22T08:37:04.257Z,22.87
2018-04-22T08:38:04.238Z,23.03
2018-04-22T08:39:04.206Z,22.98
2018-04-22T08:40:04.188Z,23.00
2018-04-22T08:41:04.163Z,23.02
2018-04-22T08:42:04.195Z,23.02
2018-04-22T08:43:04.113Z,23.00
2018-04-22T08:44:04.149Z,23.12
2018-04-22T08:45:04.068Z,23.20
2018-04-22T08:46:04.054Z,23.15
2018-04-22T08:47:04.071Z,23.21
2018-04-22T08:48:04.004Z,23.12
2018-04-22T08:49:03.984Z,23.17
2018-04-22T08:50:03.961Z,23.37
2018-04-22T08:51:03.946Z,23.32
2018-04-22T08:52:03.920Z,23.27
2018-04-22T08:53:03.902Z,23.34
2018-04-22T08:54:03.876Z,23.40
2018-04-22T08:55:03.860Z,23.47
2018-04-22T08:56:03.834Z,23.44
2018-04-22T08:57:03.803Z,23.56
2018-04-22T08:58:03.792Z,23.47
2018-04-22T08:59:03.769Z,23.48
2018-04-22T09:00:03.741Z,23.47
2018-04-22T09:01:03.724Z,23.59
2018-04-22T09:02:03.732Z,23.54
2018-04-22T09:03:03.672Z,23.61
2018-04-22T09:04:03.656Z,23.65
2018-04-22T09:05:03.639Z,23.69
2018-04-22T09:06:03.612Z,23.66
2018-04-22T09:07:03.592Z,23.68
2018-04-22T09:08:03.636Z,23.66
2018-04-22T09:09:03.549Z,23.69
2018-04-22T09:10:03.523Z,23.80
2018-04-22T09:11:03.502Z,23.78
2018-04-22T09:12:03.479Z,23.78
2018-04-22T09:13:03.463Z,23.88
2018-04-22T09:14:03.435Z,23.80
2018-04-22T09:15:03.418Z,23.86
2018-04-22T09:16:03.402Z,23.86
2018-04-22T09:17:03.374Z,23.88
2018-04-22T09:18:03.347Z,23.84
2018-04-22T09:19:03.331Z,23.92
2018-04-22T09:20:03.381Z,23.98
2018-04-22T09:21:03.289Z,23.92
2018-04-22T09:22:03.286Z,23.93
2018-04-22T09:23:03.245Z,24.06
2018-04-22T09:24:03.216Z,24.02
2018-04-22T09:25:03.198Z,24.05
2018-04-22T09:26:03.176Z,24.05
2018-04-22T09:27:03.154Z,24.21
2018-04-22T09:28:03.130Z,24.06
2018-04-22T09:29:03.109Z,24.17
2018-04-22T09:30:03.097Z,24.06
2018-04-22T09:31:03.064Z,24.14
2018-04-22T09:32:03.051Z,24.21
2018-04-22T09:33:03.029Z,24.20
2018-04-22T09:34:03.001Z,24.21
2018-04-22T09:35:02.987Z,24.28
2018-04-22T09:36:02.957Z,24.20
2018-04-22T09:37:02.961Z,24.21
2018-04-22T09:38:02.923Z,24.23
2018-04-22T09:39:02.901Z,24.24
2018-04-22T09:40:02.923Z,24.38
2018-04-22T09:41:02.853Z,24.33
2018-04-22T09:42:02.870Z,24.32
2018-04-22T09:43:02.842Z,24.30
2018-04-22T09:44:02.784Z,24.38
2018-04-22T09:45:02.768Z,24.43
2018-04-22T09:46:02.741Z,24.43
2018-04-22T09:47:02.724Z,24.40
2018-04-22T09:48:02.707Z,24.40
2018-04-22T09:49:02.682Z,24.47
2018-04-22T09:50:02.664Z,24.40
2018-04-22T09:51:02.636Z,24.47
2018-04-22T09:52:02.638Z,24.50
2018-04-22T09:53:02.605Z,24.45
2018-04-22T09:54:02.571Z,24.58
2018-04-22T09:55:02.563Z,24.60
2018-04-22T09:56:02.530Z,24.60
2018-04-22T09:57:02.514Z,24.60
2018-04-22T09:58:02.491Z,24.70
2018-04-22T09:59:02.502Z,24.73
2018-04-22T10:00:02.446Z,24.63
2018-04-22T10:01:02.455Z,24.73
2018-04-22T10:02:02.406Z,24.80
2018-04-22T10:03:02.379Z,24.78
2018-04-22T10:04:02.382Z,24.86
2018-04-22T10:05:02.340Z,25.03
2018-04-22T10:06:02.313Z,25.04
2018-04-22T10:07:02.334Z,25.04
2018-04-22T10:08:02.273Z,25.10
2018-04-22T10:09:02.252Z,25.13
2018-04-22T10:10:02.233Z,25.18
2018-04-22T10:11:02.205Z,25.23
2018-04-22T10:12:02.191Z,25.25
2018-04-22T10:13:02.169Z,25.33
2018-04-22T10:14:02.149Z,25.47
2018-04-22T10:15:02.135Z,25.50
2018-04-22T10:16:02.173Z,25.65
2018-04-22T10:17:02.148Z,25.65
2018-04-22T10:18:02.069Z,25.78
2018-04-22T10:19:02.067Z,25.78
2018-04-22T10:20:02.045Z,25.85
2018-04-22T10:21:02.054Z,25.88
2018-04-22T10:22:01.985Z,25.88
2018-04-22T10:23:01.962Z,25.99
2018-04-22T10:24:01.940Z,26.03
2018-04-22T10:25:01.920Z,26.09
2018-04-22T10:26:01.896Z,26.09
2018-04-22T10:27:01.879Z,26.07
2018-04-22T10:28:01.856Z,26.22
2018-04-22T10:29:01.829Z,26.19
2018-04-22T10:30:01.812Z,26.36
2018-04-22T10:31:01.815Z,26.44
2018-04-22T10:32:01.772Z,26.51
2018-04-22T10:33:01.749Z,26.51
2018-04-22T10:34:01.732Z,26.74
2018-04-22T10:35:01.710Z,26.73
2018-04-22T10:36:01.684Z,26.83
2018-04-22T10:37:01.671Z,26.84
2018-04-22T10:38:01.645Z,26.92
2018-04-22T10:39:01.624Z,26.93
2018-04-22T10:40:01.665Z,27.00
2018-04-22T10:41:01.586Z,27.03
2018-04-22T10:42:01.593Z,27.03
2018-04-22T10:43:01.545Z,27.20
2018-04-22T10:44:01.523Z,27.17
2018-04-22T10:45:01.511Z,27.26
2018-04-22T10:46:01.490Z,27.22
2018-04-22T10:47:01.461Z,27.33
2018-04-22T10:48:01.447Z,27.37
2018-04-22T10:49:01.428Z,27.51
2018-04-22T10:50:01.400Z,27.59
2018-04-22T10:51:01.382Z,27.73
2018-04-22T10:52:01.364Z,27.71
2018-04-22T10:53:01.343Z,27.48
2018-04-22T10:54:01.326Z,27.45
2018-04-22T10:55:01.419Z,27.49
2018-04-22T10:56:01.287Z,27.54
2018-04-22T10:57:01.263Z,27.47
2018-04-22T10:58:01.269Z,27.51
2018-04-22T10:59:01.365Z,27.49
2018-04-22T11:00:01.281Z,27.54
2018-04-22T11:01:01.180Z,27.54
2018-04-22T11:02:01.271Z,27.52
2018-04-22T11:03:01.163Z,27.52
2018-04-22T11:04:01.193Z,27.64
2018-04-22T11:05:01.112Z,27.74
2018-04-22T11:06:01.097Z,27.70
2018-04-22T11:07:01.066Z,27.74
2018-04-22T11:08:01.046Z,27.77
2018-04-22T11:09:01.025Z,27.80
2018-04-22T11:10:01.018Z,27.87
2018-04-22T11:11:00.987Z,27.87
2018-04-22T11:12:00.962Z,27.89
2018-04-22T11:13:00.943Z,27.89
2018-04-22T11:14:00.928Z,27.78
2018-04-22T11:15:00.899Z,27.74
2018-04-22T11:16:00.887Z,27.78
2018-04-22T11:17:00.876Z,27.70
2018-04-22T11:18:00.874Z,27.77
2018-04-22T11:19:00.830Z,27.74
2018-04-22T11:20:00.810Z,27.74
2018-04-22T11:21:00.792Z,27.89
2018-04-22T11:22:00.768Z,27.80
2018-04-22T11:23:00.757Z,27.73
2018-04-22T11:24:00.724Z,27.63
2018-04-22T11:25:00.706Z,27.59
2018-04-22T11:26:00.692Z,27.64
2018-04-22T11:27:00.663Z,27.70
2018-04-22T11:28:00.653Z,27.77
2018-04-22T11:29:00.632Z,27.71
2018-04-22T11:30:00.611Z,27.80
2018-04-22T11:31:00.593Z,27.85
2018-04-22T11:32:00.567Z,27.90
2018-04-22T11:33:00.558Z,27.80
2018-04-22T11:34:00.526Z,27.90
2018-04-22T11:35:00.512Z,27.83
2018-04-22T11:36:00.495Z,27.90
2018-04-22T11:37:00.471Z,27.83
2018-04-22T11:38:00.449Z,27.80
2018-04-22T11:39:00.433Z,27.80
2018-04-22T11:40:00.406Z,27.77
2018-04-22T11:41:00.394Z,27.82
2018-04-22T11:42:00.407Z,27.78
2018-04-22T11:43:00.350Z,27.70
2018-04-22T11:44:00.335Z,27.74
2018-04-22T11:45:00.318Z,27.85
2018-04-22T11:46:00.296Z,27.89
2018-04-22T11:47:00.270Z,27.87
2018-04-22T11:48:00.263Z,28.02
2018-04-22T11:49:00.233Z,28.07
2018-04-22T11:50:00.220Z,28.17
2018-04-22T11:51:00.199Z,28.11
2018-04-22T11:52:00.170Z,28.17
2018-04-22T11:53:00.154Z,28.07
2018-04-22T11:54:00.136Z,28.05
2018-04-22T11:55:00.114Z,28.10
2018-04-22T11:56:00.099Z,28.25
2018-04-22T11:57:00.076Z,28.38
2018-04-22T11:58:00.060Z,28.35
2018-04-22T11:59:00.045Z,28.33
2018-04-22T12:00:00.052Z,28.30
2018-04-22T12:01:00.006Z,28.41
2018-04-22T12:01:59.985Z,28.52
2018-04-22T12:02:59.963Z,28.63
2018-04-22T12:03:59.940Z,28.74
2018-04-22T12:04:59.916Z,28.82
2018-04-22T12:05:59.901Z,29.07
2018-04-22T12:06:59.879Z,29.13
2018-04-22T12:07:59.864Z,29.27
2018-04-22T12:08:59.848Z,29.42
2018-04-22T12:09:59.827Z,29.35
2018-04-22T12:10:59.847Z,29.31
2018-04-22T12:11:59.789Z,29.36
2018-04-22T12:12:59.783Z,29.42
2018-04-22T12:13:59.748Z,29.51
2018-04-22T12:14:59.744Z,29.47
2018-04-22T12:15:59.710Z,29.53
2018-04-22T12:16:59.686Z,29.63
2018-04-22T12:17:59.677Z,29.60
2018-04-22T12:18:59.661Z,29.61
2018-04-22T12:19:59.632Z,29.61
2018-04-22T12:20:59.981Z,29.59
2018-04-22T12:21:59.600Z,29.53
2018-04-22T12:22:59.576Z,29.47
2018-04-22T12:23:59.558Z,29.39
2018-04-22T12:24:59.544Z,29.29
2018-04-22T12:25:59.523Z,29.29
2018-04-22T12:26:59.501Z,29.29
2018-04-22T12:27:59.525Z,29.16
2018-04-22T12:28:59.463Z,29.05
2018-04-22T12:29:59.455Z,29.10
2018-04-22T12:30:59.433Z,29.07
2018-04-22T12:31:59.407Z,29.14
2018-04-22T12:32:59.396Z,29.05
2018-04-22T12:33:59.372Z,29.12
2018-04-22T12:34:59.351Z,29.19
2018-04-22T12:35:59.335Z,29.14
2018-04-22T12:36:59.319Z,29.35
2018-04-22T12:37:59.302Z,29.27
2018-04-22T12:38:59.277Z,29.24
2018-04-22T12:39:59.260Z,29.32
2018-04-22T12:40:59.241Z,29.45
2018-04-22T12:41:59.219Z,29.50
2018-04-22T12:42:59.206Z,29.57
2018-04-22T12:43:59.181Z,29.57
2018-04-22T12:44:59.170Z,29.72
2018-04-22T12:45:59.145Z,29.84
2018-04-22T12:46:59.122Z,29.84
2018-04-22T12:47:59.113Z,29.88
2018-04-22T12:48:59.087Z,29.91
2018-04-22T12:49:59.077Z,29.98
2018-04-22T12:50:59.052Z,30.09
2018-04-22T12:51:59.029Z,30.15